Flight Track Log - Related Links

Times and Time Zones

All times are in EDT time to prevent confusion due to time zone crossing. See the SWA738 flight status page for this flight to view local times or setup timezone preferences in your user account.


Time Position Orientation Groundspeed Altitude Reporting Facility
EDT Latitude Longitude Course Direction KTS MPH feet Rate Location/Type
Sat 09:31:38 AM 28.4167 -81.3167 204° Southwest 180 207 600  Level Orlando TRACON
Sat 09:32:02 AM 28.3833 -81.3333 204° Southwest 198 228 1,400 2,214 Climbing Orlando TRACON
Sat 09:33:02 AM 28.3333 -81.3667 210° Southwest 241 277 3,700 2,600 Climbing Orlando TRACON
Sat 09:34:02 AM 28.3333 -81.4500 270° West 277 319 6,600 2,556 Climbing Orlando TRACON
Sat 09:35:44 AM 28.3144 -81.6006 262° West 277 319 10,600 2,185 Climbing Jacksonville Center
Sat 09:36:44 AM 28.3053 -81.7092 265° West 311 358 12,500 2,100 Climbing Jacksonville Center
Sat 09:37:44 AM 28.2936 -81.8247 263° West 351 404 14,800 2,200 Climbing Jacksonville Center
Sat 09:38:44 AM 28.3050 -81.9400 276° West 366 421 16,900 2,050 Climbing Jacksonville Center
Sat 09:39:44 AM 28.3578 -82.0458 300° West 366 421 18,900 1,850 Climbing Jacksonville Center
Sat 09:40:44 AM 28.4128 -82.1561 300° West 381 438 20,600 2,100 Climbing Jacksonville Center
Sat 09:41:44 AM 28.4781 -82.2572 306° West 397 457 23,100 1,800 Climbing Jacksonville Center
Sat 09:42:44 AM 28.5722 -82.3275 327° Northwest 392 451 24,200 1,300 Climbing Jacksonville Center
Sat 09:43:44 AM 28.6644 -82.4053 324° Northwest 403 464 25,700 1,300 Climbing Jacksonville Center
Sat 09:44:44 AM 28.7503 -82.4733 325° Northwest 409 471 26,800 1,150 Climbing Jacksonville Center
Sat 09:45:44 AM 28.8464 -82.5514 325° Northwest 420 483 28,000 1,350 Climbing Jacksonville Center
Sat 09:46:44 AM 28.9447 -82.6317 324° Northwest 428 493 29,500 1,300 Climbing Jacksonville Center
Sat 09:47:44 AM 29.0408 -82.7097 325° Northwest 433 498 30,600 1,050 Climbing Jacksonville Center
Sat 09:48:44 AM 29.1392 -82.7881 325° Northwest 433 498 31,600 1,100 Climbing Jacksonville Center
Sat 09:49:44 AM 29.2372 -82.8689 324° Northwest 433 498 32,800 1,000 Climbing Jacksonville Center
Sat 09:50:44 AM 29.3333 -82.9472 325° Northwest 433 498 33,600 600 Climbing Jacksonville Center
Sat 09:51:44 AM 29.4333 -83.0286 325° Northwest 433 498 34,000 200 Climbing Jacksonville Center
Sat 09:52:44 AM 29.5378 -83.1144 324° Northwest 442 509 34,000  Level Jacksonville Center
Sat 09:53:44 AM 29.6378 -83.1983 324° Northwest 447 514 34,000  Level Jacksonville Center
Sat 09:54:44 AM 29.7378 -83.2800 325° Northwest 447 514 34,000  Level Jacksonville Center
Sat 09:55:44 AM 29.8378 -83.3594 325° Northwest 447 514 34,000  Level Jacksonville Center
Sat 09:56:44 AM 29.9375 -83.4439 324° Northwest 447 514 34,000  Level Jacksonville Center
Sat 09:57:44 AM 30.0375 -83.5236 325° Northwest 447 514 34,000  Level Jacksonville Center
Sat 09:58:44 AM 30.1350 -83.6058 324° Northwest 441 507 34,000  Level Jacksonville Center
Sat 09:59:44 AM 30.2347 -83.6883 324° Northwest 441 507 34,000  Level Jacksonville Center
Sat 10:00:44 AM 30.3344 -83.7686 325° Northwest 436 502 34,000  Level Jacksonville Center
Sat 10:01:44 AM 30.4278 -83.8514 323° Northwest 431 496 34,000  Level Jacksonville Center
Sat 10:02:44 AM 30.5253 -83.9294 325° Northwest 431 496 34,000  Level Jacksonville Center
Sat 10:03:44 AM 30.6311 -84.0200 324° Northwest 431 496 34,000  Level Jacksonville Center
Sat 10:04:44 AM 30.7244 -84.0986 324° Northwest 431 496 34,000  Level Jacksonville Center
Sat 10:05:44 AM 30.8217 -84.1794 324° Northwest 431 496 34,000  Level Jacksonville Center
Sat 10:06:44 AM 30.9169 -84.2608 324° Northwest 431 496 34,000  Level Jacksonville Center
Sat 10:07:44 AM 31.0142 -84.3444 324° Northwest 431 496 34,000  Level Jacksonville Center
Sat 10:08:44 AM 31.1008 -84.4333 319° Northwest 431 496 34,000  Level Jacksonville Center
Sat 10:09:44 AM 31.1808 -84.5367 312° West 426 490 34,000  Level Jacksonville Center
Sat 10:11:30 AM 31.3111 -84.6981 313° West 426 490 34,000  Level Atlanta Center
Sat 10:12:32 AM 31.3911 -84.7997 313° West 424 488 34,000  Level Atlanta Center
Sat 10:13:34 AM 31.4853 -84.9206 312° West 422 486 34,000  Level Atlanta Center
Sat 10:14:36 AM 31.5647 -85.0211 313° West 420 483 34,000  Level Atlanta Center
Sat 10:15:38 AM 31.6422 -85.1211 312° West 417 480 34,000  Level Atlanta Center
Sat 10:16:41 AM 31.7172 -85.2178 312° West 414 476 34,000  Level Atlanta Center
Sat 10:17:43 AM 31.7956 -85.3181 313° West 415 478 34,000  Level Atlanta Center
Sat 10:18:45 AM 31.8892 -85.4381 313° West 416 479 34,000  Level Atlanta Center
Sat 10:19:47 AM 31.9661 -85.5400 312° West 417 480 34,000  Level Atlanta Center
Sat 10:20:49 AM 32.0456 -85.6411 313° West 418 481 34,000  Level Atlanta Center
Sat 10:21:51 AM 32.1219 -85.7419 312° West 418 481 34,000  Level Atlanta Center
Sat 10:22:54 AM 32.2033 -85.8461 313° West 410 472 34,000  Level Atlanta Center
Sat 10:23:56 AM 32.2797 -85.9464 312° West 413 475 34,000  Level Atlanta Center
Sat 10:24:58 AM 32.3592 -86.0489 313° West 424 488 34,000  Level Atlanta Center
Sat 10:26:00 AM 32.4514 -86.1733 311° West 418 481 34,000  Level Atlanta Center
Sat 10:27:02 AM 32.5181 -86.2625 312° West 417 480 34,000  Level Atlanta Center
Sat 10:28:04 AM 32.6108 -86.3858 312° West 418 481 34,000  Level Atlanta Center
Sat 10:29:07 AM 32.6883 -86.4858 313° West 416 479 34,000  Level Atlanta Center
Sat 10:30:09 AM 32.7928 -86.5522 332° Northwest 426 490 34,000  Level Atlanta Center
Sat 10:31:11 AM 32.8969 -86.6189 332° Northwest 426 490 34,000  Level Atlanta Center
Sat 10:32:13 AM 32.9731 -86.7200 312° West 410 472 34,000  Level Atlanta Center
Sat 10:33:15 AM 33.0633 -86.8425 311° West 412 474 34,000  Level Atlanta Center
Sat 10:34:17 AM 33.1386 -86.9478 311° West 415 478 34,000  Level Atlanta Center
Sat 10:35:20 AM 33.2136 -87.0517 311° West 415 478 34,000  Level Atlanta Center
Sat 10:36:22 AM 33.2981 -87.1692 311° West 418 481 34,000  Level Atlanta Center
Sat 10:37:24 AM 33.3728 -87.2750 310° West 417 480 34,000  Level Atlanta Center
Sat 10:38:26 AM 33.4489 -87.3800 311° West 417 480 34,000  Level Atlanta Center
Sat 10:39:28 AM 33.5253 -87.4861 311° West 417 480 34,000  Level Atlanta Center
Sat 10:40:30 AM 33.6000 -87.5944 310° West 417 480 34,000  Level Atlanta Center
Sat 10:41:33 AM 33.6756 -87.7003 311° West 417 480 34,000  Level Atlanta Center
Sat 10:42:35 AM 33.7672 -87.8300 310° West 420 483 34,000  Level Atlanta Center
Sat 10:43:37 AM 33.8411 -87.9372 310° West 418 481 34,000  Level Atlanta Center
Sat 10:44:40 AM 33.9167 -88.0431 311° West 418 481 34,000  Level Atlanta Center
Sat 10:45:58 AM 34.0058 -88.1686 311° West 417 480 34,000  Level Memphis Center
Sat 10:47:00 AM 34.0803 -88.2758 310° West 417 480 34,000  Level Memphis Center
Sat 10:48:02 AM 34.1700 -88.4050 310° West 417 480 34,000  Level Memphis Center
Sat 10:49:04 AM 34.2447 -88.5131 310° West 417 480 34,000  Level Memphis Center
Sat 10:50:05 AM 34.3197 -88.6211 310° West 417 480 34,000  Level Memphis Center
Sat 10:52:09 AM 34.4767 -88.8500 310° West 417 480 34,000  Level Memphis Center
Sat 10:53:11 AM 34.5508 -88.9575 310° West 417 480 34,000  Level Memphis Center
Sat 10:54:13 AM 34.6222 -89.0647 309° West 416 479 34,000  Level Memphis Center
Sat 10:55:15 AM 34.6953 -89.1708 310° West 412 474 34,000  Level Memphis Center
Sat 10:56:17 AM 34.7672 -89.2769 310° West 412 474 34,000  Level Memphis Center
Sat 10:57:19 AM 34.8386 -89.3817 310° West 410 472 34,000  Level Memphis Center
Sat 10:58:20 AM 34.9242 -89.5050 310° West 406 467 34,000  Level Memphis Center
Sat 10:59:22 AM 34.9950 -89.6097 310° West 406 467 34,000  Level Memphis Center
Sat 11:00:24 AM 35.0644 -89.7150 309° West 406 467 34,000  Level Memphis Center
Sat 11:01:26 AM 35.1336 -89.8197 309° West 405 466 34,000  Level Memphis Center
Sat 11:02:28 AM 35.2153 -89.9444 309° West 400 460 34,000  Level Memphis Center
Sat 11:03:30 AM 35.2833 -90.0483 309° West 397 457 34,000  Level Memphis Center
Sat 11:04:31 AM 35.3533 -90.1528 309° West 397 457 34,000  Level Memphis Center
Sat 11:05:33 AM 35.4219 -90.2583 309° West 397 457 34,000  Level Memphis Center
Sat 11:06:35 AM 35.4906 -90.3614 309° West 396 456 34,000  Level Memphis Center
Sat 11:07:37 AM 35.5581 -90.4669 308° West 395 455 34,000  Level Memphis Center
Sat 11:08:38 AM 35.6267 -90.5714 309° West 395 455 34,000  Level Memphis Center
Sat 11:09:40 AM 35.7025 -90.6869 309° West 395 455 34,000  Level Memphis Center
Sat 11:10:42 AM 35.7706 -90.7928 308° West 395 455 34,000  Level Memphis Center
Sat 11:11:44 AM 35.8397 -90.8983 309° West 395 455 34,000  Level Memphis Center
Sat 11:12:45 AM 35.9208 -91.0256 308° West 395 455 34,000  Level Memphis Center
Sat 11:13:47 AM 35.9892 -91.1311 309° West 394 453 34,000  Level Memphis Center
Sat 11:14:49 AM 36.0564 -91.2369 308° West 394 453 34,000  Level Memphis Center
Sat 11:15:51 AM 36.1247 -91.3431 309° West 393 452 34,000  Level Memphis Center
Sat 11:16:53 AM 36.1917 -91.4478 308° West 393 452 34,000  Level Memphis Center
Sat 11:17:54 AM 36.2567 -91.5525 308° West 390 449 34,000  Level Memphis Center
Sat 11:18:56 AM 36.3242 -91.6583 308° West 390 449 34,000  Level Memphis Center
Sat 11:19:58 AM 36.4019 -91.7817 308° West 390 449 34,000  Level Memphis Center
Sat 11:21:00 AM 36.4683 -91.8878 308° West 390 449 34,000  Level Memphis Center
Sat 11:22:02 AM 36.5406 -92.0031 308° West 390 449 34,000  Level Memphis Center
Sat 11:23:04 AM 36.6083 -92.1100 308° West 390 449 34,000  Level Memphis Center
Sat 11:24:05 AM 36.6744 -92.2189 307° West 390 449 34,000  Level Memphis Center
Sat 11:25:07 AM 36.7414 -92.3250 308° West 390 449 34,000  Level Memphis Center
Sat 11:26:09 AM 36.8075 -92.4325 308° West 390 449 34,000  Level Memphis Center
Sat 11:27:11 AM 36.8742 -92.5411 308° West 390 449 34,000  Level Memphis Center
Sat 11:28:12 AM 36.9406 -92.6497 307° West 390 449 34,000  Level Kansas City Center
Sat 11:29:13 AM 37.0067 -92.7578 307° West 390 449 34,000  Level Kansas City Center
Sat 11:30:17 AM 37.0950 -92.8422 323° Northwest 394 453 34,000  Level Kansas City Center
Sat 11:31:18 AM 37.1908 -92.9156 329° Northwest 400 460 34,000  Level Kansas City Center
Sat 11:32:21 AM 37.3033 -93.0011 329° Northwest 396 456 34,000  Level Kansas City Center
Sat 11:33:22 AM 37.3969 -93.0728 329° Northwest 394 453 34,000 -295 Level Kansas City Center
Sat 11:34:23 AM 37.4917 -93.1458 329° Northwest 394 453 33,400 -1,008 Descending Kansas City Center
Sat 11:35:27 AM 37.5886 -93.2206 329° Northwest 398 458 31,900 -1,008 Descending Kansas City Center
Sat 11:36:28 AM 37.6833 -93.2953 328° Northwest 399 459 31,300 -639 Descending Kansas City Center
Sat 11:37:29 AM 37.7772 -93.3692 328° Northwest 399 459 30,600 -624 Descending Kansas City Center
Sat 11:38:33 AM 37.8742 -93.4442 329° Northwest 399 459 30,000 -290 Descending Kansas City Center
Sat 11:39:33 AM 37.9967 -93.5408 328° Northwest 415 478 30,000  Level Kansas City Center
Sat 11:40:37 AM 38.1000 -93.6211 329° Northwest 427 491 30,000  Level Kansas City Center
Sat 11:41:38 AM 38.1994 -93.7008 328° Northwest 427 491 30,000 -98 Level Kansas City Center
Sat 11:42:40 AM 38.2994 -93.7792 328° Northwest 425 489 29,800 -1,392 Descending Kansas City Center
Sat 11:43:43 AM 38.3981 -93.8611 327° Northwest 424 488 27,100 -2,592 Descending Kansas City Center
Sat 11:44:45 AM 38.4967 -93.9364 329° Northwest 425 489 24,400 -2,736 Descending Kansas City Center
Sat 11:45:48 AM 38.6161 -94.0275 329° Northwest 412 474 21,400 -2,613 Descending Kansas City Center
Sat 11:46:49 AM 38.7069 -94.1047 326° Northwest 396 456 19,000 -2,226 Descending Kansas City Center
Sat 11:47:52 AM 38.7853 -94.1922 319° Northwest 378 435 16,800 -2,226 Descending Kansas City Center
Sat 11:48:53 AM 38.8633 -94.2756 320° Northwest 371 427 14,400 -2,129 Descending Kansas City Center
Sat 11:49:56 AM 38.9375 -94.3583 319° Northwest 356 410 12,400 -1,210 Descending Kansas City Center
Sat 11:50:57 AM 39.0200 -94.4472 320° Northwest 322 371 11,900 -242 Descending Kansas City Center
Sat 11:52:00 AM 39.0825 -94.5156 320° Northwest 298 343 11,900 -48 Level Kansas City Center
Sat 11:53:01 AM 39.1389 -94.5772 320° Northwest 271 312 11,800 -576 Descending Kansas City Center
Sat 11:54:05 AM 39.1925 -94.6281 324° Northwest 245 282 10,700 -1,392 Descending Kansas City Center
Sat 11:55:06 AM 39.2581 -94.6108 11° North 237 273 8,900 -1,500 Descending Kansas City Center
Sat 11:56:09 AM 39.3133 -94.5919 15° North 207 238 7,600 -1,902 Descending Kansas City Center
Sat 11:57:09 AM 39.3706 -94.5869 North 183 211 5,000 -1,920 Descending Kansas City Center
Sat 11:58:14 AM 39.3706 -94.6417 270° West 157 181 3,600 -1,344 Descending Kansas City Center
Sat 11:59:14 AM 39.3556 -94.6828 245° Southwest 140 161 2,200 -1,171 Descending Kansas City Center
Sat 12:00:17 PM 39.3181 -94.6983 198° South 141 162 1,200 -952 Descending Kansas City Center
Sat 12:02:00 PM 39.2976 -94.7139 234° Southwest  Level Estimated

Login

Don't have an account? Register now (free) for customized features, flight alerts, and more!